Trout Creek, MI (49967)

11:30 PM EST on December 21, 2014 (GMT -0500)
RAWS KENTON MI US | Change Station
CLOSE
Current Station
Personal Weather Station
Location: Nisula, MI
Elevation: 1262 ft
Nearby Weather Stations
Active Advisory: Special Statement

Elev 1262 ft 46.61 °N, 88.91 °W | Updated 34 minutes ago

Snow
Snow
32 °F
Feels Like 32 °F
N
2
Wind Variable Wind from South
Gusts 4.0 mph

Today
High -- | Low -- °F
--% Chance of Precip.
Yesterday
High -- | Low -- °F
Precip. -- in
8:36 AM 5:11 PM
New Moon, 0% visible
Pressure 29.83 in
Visibility 4.0 miles
Clouds Mostly Cloudy 700 ft
Overcast 1200 ft
Windchill 32 °F
Dew Point 32 °F
Humidity 98%
Rainfall 0.00 in
Snow Depth Not available.
UV 0 out of 12
Pollen .10 out of 12
Air Quality Not available.
Flu Activity Not available.
METAR KLNL 220415Z AUTO 17008KT 4SM -SN BKN007 OVC012 00/00 A2983 RMK AO2 T00030000

More Conditions Fewer Conditions

Pressure 29.83 in
Visibility 4.0 miles
Clouds Mostly Cloudy 700 ft
Overcast 1200 ft
Windchill 32 °F
Dew Point 32 °F
Humidity 98%
Rainfall 0.00 in
Snow Depth Not available.
UV 0 out of 12
Pollen .10 out of 12
Air Quality Not available.
Flu Activity Not available.
METAR KLNL 220415Z AUTO 17008KT 4SM -SN BKN007 OVC012 00/00 A2983 RMK AO2 T00030000

More Conditions Fewer Conditions

10-Day Weather Forecast

Almanac

Astronomy

Dec. 21, 2014 Rise Set
Actual Time
Civil Twilight
Nautical Twilight
Astronomical Twilight
Moon
Length of Visible Light
Length of Day
Tomorrow will be .
, % of the Moon is Illuminated

Today's Extremes

State Highs State Lows

Community

WunderPhotos

Upload Photos

1,779,540 photos uploaded!

WunderBlogs® & News

Nearby

Air Quality

  Air Quality AQ Index Pollutant
Not available.

Snow Depth

Station Depth Elevation

Earthquake Activity

City Distance Mag. Time & Date
Minimum magnitude displayed is 2.5.

Coastal Water Temperatures

Place Temperature

Nearby Weather Stations